sensor_id;sensor_type;location;lat;lon;timestamp;pressure;altitude;pressure_sealevel;temperature;humidity
9335;BME280;4706;41.844;26.082;2023-07-13T00:01:17;100792.47;;;28.90;57.83
9335;BME280;4706;41.844;26.082;2023-07-13T00:03:43;100789.06;;;28.68;58.57
9335;BME280;4706;41.844;26.082;2023-07-13T00:06:08;100789.72;;;28.83;58.22
9335;BME280;4706;41.844;26.082;2023-07-13T00:08:34;100777.66;;;28.75;58.59
9335;BME280;4706;41.844;26.082;2023-07-13T00:11:01;100771.84;;;28.51;60.13
9335;BME280;4706;41.844;26.082;2023-07-13T00:13:27;100773.97;;;28.37;62.63
9335;BME280;4706;41.844;26.082;2023-07-13T00:15:53;100766.47;;;28.16;64.32
9335;BME280;4706;41.844;26.082;2023-07-13T00:18:20;100758.44;;;28.11;63.73
9335;BME280;4706;41.844;26.082;2023-07-13T00:20:46;100768.63;;;27.97;63.69
9335;BME280;4706;41.844;26.082;2023-07-13T00:23:11;100765.06;;;27.86;63.90
9335;BME280;4706;41.844;26.082;2023-07-13T00:25:37;100755.25;;;28.05;63.08
9335;BME280;4706;41.844;26.082;2023-07-13T00:28:03;100759.69;;;28.06;63.44
9335;BME280;4706;41.844;26.082;2023-07-13T00:30:29;100766.19;;;27.99;63.66
9335;BME280;4706;41.844;26.082;2023-07-13T00:32:55;100766.38;;;27.74;64.77
9335;BME280;4706;41.844;26.082;2023-07-13T00:35:21;100765.47;;;27.92;64.52
9335;BME280;4706;41.844;26.082;2023-07-13T00:37:46;100757.88;;;27.71;65.31
9335;BME280;4706;41.844;26.082;2023-07-13T00:40:13;100753.38;;;27.88;65.00
9335;BME280;4706;41.844;26.082;2023-07-13T00:42:39;100744.03;;;27.91;64.98
9335;BME280;4706;41.844;26.082;2023-07-13T00:47:36;100740.97;;;27.67;64.88
9335;BME280;4706;41.844;26.082;2023-07-13T00:50:03;100757.34;;;27.94;64.64
9335;BME280;4706;41.844;26.082;2023-07-13T00:52:31;100760.19;;;27.90;64.46
9335;BME280;4706;41.844;26.082;2023-07-13T00:54:58;100752.84;;;28.03;63.76
9335;BME280;4706;41.844;26.082;2023-07-13T00:57:24;100759.97;;;28.19;63.05
9335;BME280;4706;41.844;26.082;2023-07-13T00:59:57;100758.69;;;28.27;62.71
9335;BME280;4706;41.844;26.082;2023-07-13T01:02:25;100761.03;;;28.36;62.65
9335;BME280;4706;41.844;26.082;2023-07-13T01:04:51;100762.22;;;28.42;62.48
9335;BME280;4706;41.844;26.082;2023-07-13T01:07:17;100764.19;;;28.48;62.11
9335;BME280;4706;41.844;26.082;2023-07-13T01:09:44;100770.63;;;28.52;61.84
9335;BME280;4706;41.844;26.082;2023-07-13T01:12:11;100764.88;;;28.60;61.58
9335;BME280;4706;41.844;26.082;2023-07-13T01:14:36;100757.63;;;28.59;61.13
9335;BME280;4706;41.844;26.082;2023-07-13T01:17:03;100764.50;;;28.58;61.17
9335;BME280;4706;41.844;26.082;2023-07-13T01:19:40;100749.22;;;28.51;60.63
9335;BME280;4706;41.844;26.082;2023-07-13T01:22:17;100760.72;;;28.71;59.87
9335;BME280;4706;41.844;26.082;2023-07-13T01:24:46;100753.63;;;28.52;60.38
9335;BME280;4706;41.844;26.082;2023-07-13T01:27:15;100759.16;;;28.22;61.41
9335;BME280;4706;41.844;26.082;2023-07-13T01:29:42;100750.47;;;27.98;62.41
9335;BME280;4706;41.844;26.082;2023-07-13T01:32:14;100754.94;;;27.92;62.65
9335;BME280;4706;41.844;26.082;2023-07-13T01:34:40;100755.44;;;27.80;63.24
9335;BME280;4706;41.844;26.082;2023-07-13T01:37:11;100743.75;;;27.78;63.11
9335;BME280;4706;41.844;26.082;2023-07-13T01:39:37;100748.91;;;27.87;63.01
9335;BME280;4706;41.844;26.082;2023-07-13T01:42:03;100748.56;;;27.81;63.36
9335;BME280;4706;41.844;26.082;2023-07-13T01:44:29;100749.69;;;27.91;62.90
9335;BME280;4706;41.844;26.082;2023-07-13T01:46:54;100738.28;;;28.05;62.48
9335;BME280;4706;41.844;26.082;2023-07-13T01:49:20;100741.06;;;28.08;62.38
9335;BME280;4706;41.844;26.082;2023-07-13T01:51:45;100728.66;;;27.99;62.56
9335;BME280;4706;41.844;26.082;2023-07-13T01:54:11;100725.56;;;27.72;63.53
9335;BME280;4706;41.844;26.082;2023-07-13T01:56:36;100735.19;;;27.89;63.12
9335;BME280;4706;41.844;26.082;2023-07-13T01:59:02;100738.00;;;27.89;63.22
9335;BME280;4706;41.844;26.082;2023-07-13T02:01:28;100744.91;;;27.88;63.29
9335;BME280;4706;41.844;26.082;2023-07-13T02:03:53;100737.88;;;28.06;62.90
9335;BME280;4706;41.844;26.082;2023-07-13T02:06:19;100737.94;;;27.99;63.10
9335;BME280;4706;41.844;26.082;2023-07-13T02:08:44;100736.75;;;27.93;63.18
9335;BME280;4706;41.844;26.082;2023-07-13T02:11:10;100743.56;;;28.03;63.09
9335;BME280;4706;41.844;26.082;2023-07-13T02:13:35;100747.03;;;27.66;65.10
9335;BME280;4706;41.844;26.082;2023-07-13T02:16:01;100744.97;;;27.70;64.42
9335;BME280;4706;41.844;26.082;2023-07-13T02:18:26;100756.19;;;27.88;63.54
9335;BME280;4706;41.844;26.082;2023-07-13T02:20:52;100746.53;;;27.85;63.67
9335;BME280;4706;41.844;26.082;2023-07-13T02:23:18;100750.66;;;27.66;64.36
9335;BME280;4706;41.844;26.082;2023-07-13T02:25:44;100747.44;;;27.60;64.73
9335;BME280;4706;41.844;26.082;2023-07-13T02:28:10;100752.31;;;27.60;64.45
9335;BME280;4706;41.844;26.082;2023-07-13T02:30:36;100753.44;;;27.80;64.02
9335;BME280;4706;41.844;26.082;2023-07-13T02:33:01;100763.00;;;27.94;62.95
9335;BME280;4706;41.844;26.082;2023-07-13T02:35:27;100754.16;;;27.92;61.92
9335;BME280;4706;41.844;26.082;2023-07-13T02:37:53;100759.06;;;27.84;62.38
9335;BME280;4706;41.844;26.082;2023-07-13T02:40:18;100769.59;;;27.80;62.73
9335;BME280;4706;41.844;26.082;2023-07-13T02:42:44;100763.56;;;27.74;63.00
9335;BME280;4706;41.844;26.082;2023-07-13T02:45:10;100771.28;;;27.59;63.68
9335;BME280;4706;41.844;26.082;2023-07-13T02:47:36;100758.41;;;27.51;63.38
9335;BME280;4706;41.844;26.082;2023-07-13T02:50:02;100771.25;;;27.63;63.28
9335;BME280;4706;41.844;26.082;2023-07-13T02:52:28;100774.53;;;27.58;63.80
9335;BME280;4706;41.844;26.082;2023-07-13T02:54:53;100777.34;;;27.62;63.36
9335;BME280;4706;41.844;26.082;2023-07-13T02:57:19;100774.91;;;27.60;63.53
9335;BME280;4706;41.844;26.082;2023-07-13T02:59:44;100770.50;;;27.55;63.68
9335;BME280;4706;41.844;26.082;2023-07-13T03:02:10;100768.47;;;27.56;63.73
9335;BME280;4706;41.844;26.082;2023-07-13T03:04:36;100774.56;;;27.54;63.65
9335;BME280;4706;41.844;26.082;2023-07-13T03:07:03;100774.88;;;27.64;63.50
9335;BME280;4706;41.844;26.082;2023-07-13T03:09:30;100778.97;;;27.59;63.26
9335;BME280;4706;41.844;26.082;2023-07-13T03:11:56;100775.28;;;27.66;62.89
9335;BME280;4706;41.844;26.082;2023-07-13T03:14:22;100775.69;;;27.64;63.03
9335;BME280;4706;41.844;26.082;2023-07-13T03:16:49;100782.94;;;27.69;62.85
9335;BME280;4706;41.844;26.082;2023-07-13T03:19:15;100770.88;;;27.65;62.79
9335;BME280;4706;41.844;26.082;2023-07-13T03:21:41;100781.31;;;27.68;63.17
9335;BME280;4706;41.844;26.082;2023-07-13T03:24:06;100780.91;;;27.73;62.85
9335;BME280;4706;41.844;26.082;2023-07-13T03:26:32;100780.00;;;27.87;62.47
9335;BME280;4706;41.844;26.082;2023-07-13T03:28:58;100784.84;;;27.90;62.06
9335;BME280;4706;41.844;26.082;2023-07-13T03:31:26;100783.38;;;27.60;62.75
9335;BME280;4706;41.844;26.082;2023-07-13T03:33:54;100790.69;;;27.54;62.88
9335;BME280;4706;41.844;26.082;2023-07-13T03:36:22;100795.94;;;27.52;62.75
9335;BME280;4706;41.844;26.082;2023-07-13T03:38:51;100784.16;;;27.64;62.09
9335;BME280;4706;41.844;26.082;2023-07-13T03:41:17;100803.94;;;27.68;62.40
9335;BME280;4706;41.844;26.082;2023-07-13T03:43:43;100795.03;;;27.73;62.42
9335;BME280;4706;41.844;26.082;2023-07-13T03:46:09;100795.84;;;27.73;62.22
9335;BME280;4706;41.844;26.082;2023-07-13T03:48:34;100799.84;;;27.79;62.43
9335;BME280;4706;41.844;26.082;2023-07-13T03:51:00;100800.66;;;27.83;62.41
9335;BME280;4706;41.844;26.082;2023-07-13T03:53:26;100800.59;;;27.91;62.10
9335;BME280;4706;41.844;26.082;2023-07-13T03:55:52;100805.00;;;27.99;61.51
9335;BME280;4706;41.844;26.082;2023-07-13T04:00:51;100795.19;;;28.11;60.64
9335;BME280;4706;41.844;26.082;2023-07-13T04:03:17;100787.53;;;28.07;60.53
9335;BME280;4706;41.844;26.082;2023-07-13T04:05:42;100800.41;;;28.16;60.49
9335;BME280;4706;41.844;26.082;2023-07-13T04:08:08;100800.31;;;28.26;60.23
9335;BME280;4706;41.844;26.082;2023-07-13T04:10:34;100814.81;;;28.32;60.12
9335;BME280;4706;41.844;26.082;2023-07-13T04:12:59;100809.91;;;28.40;60.40
9335;BME280;4706;41.844;26.082;2023-07-13T04:15:24;100808.28;;;28.42;60.29
9335;BME280;4706;41.844;26.082;2023-07-13T04:17:50;100807.00;;;28.50;60.26
9335;BME280;4706;41.844;26.082;2023-07-13T04:20:16;100806.53;;;28.59;60.05
9335;BME280;4706;41.844;26.082;2023-07-13T04:22:41;100816.88;;;28.73;59.85
9335;BME280;4706;41.844;26.082;2023-07-13T04:25:07;100816.78;;;28.84;59.47
9335;BME280;4706;41.844;26.082;2023-07-13T04:27:32;100806.59;;;28.93;59.41
9335;BME280;4706;41.844;26.082;2023-07-13T04:29:58;100812.97;;;29.04;59.18
9335;BME280;4706;41.844;26.082;2023-07-13T04:32:23;100808.06;;;29.09;58.82
9335;BME280;4706;41.844;26.082;2023-07-13T04:34:49;100811.88;;;29.25;58.51
9335;BME280;4706;41.844;26.082;2023-07-13T04:37:18;100819.91;;;29.34;58.15
9335;BME280;4706;41.844;26.082;2023-07-13T04:39:44;100816.91;;;29.45;57.90
9335;BME280;4706;41.844;26.082;2023-07-13T04:42:09;100816.19;;;29.37;57.58
9335;BME280;4706;41.844;26.082;2023-07-13T04:44:35;100823.94;;;29.33;58.17
9335;BME280;4706;41.844;26.082;2023-07-13T04:47:01;100825.00;;;29.46;57.88
9335;BME280;4706;41.844;26.082;2023-07-13T04:49:26;100824.16;;;29.49;58.29
9335;BME280;4706;41.844;26.082;2023-07-13T04:51:52;100828.88;;;29.60;57.76
9335;BME280;4706;41.844;26.082;2023-07-13T04:54:17;100823.41;;;29.76;57.16
9335;BME280;4706;41.844;26.082;2023-07-13T04:56:43;100829.38;;;29.82;57.19
9335;BME280;4706;41.844;26.082;2023-07-13T04:59:08;100817.44;;;29.94;56.75
9335;BME280;4706;41.844;26.082;2023-07-13T05:01:34;100824.00;;;29.91;56.43
9335;BME280;4706;41.844;26.082;2023-07-13T05:03:59;100820.19;;;30.01;56.28
9335;BME280;4706;41.844;26.082;2023-07-13T05:06:25;100812.56;;;29.98;56.93
9335;BME280;4706;41.844;26.082;2023-07-13T05:08:50;100827.66;;;30.18;56.38
9335;BME280;4706;41.844;26.082;2023-07-13T05:11:17;100819.47;;;30.24;56.05
9335;BME280;4706;41.844;26.082;2023-07-13T05:13:43;100822.59;;;30.30;55.73
9335;BME280;4706;41.844;26.082;2023-07-13T05:16:09;100830.88;;;30.44;55.60
9335;BME280;4706;41.844;26.082;2023-07-13T05:18:35;100829.97;;;30.51;55.02
9335;BME280;4706;41.844;26.082;2023-07-13T05:21:07;100823.78;;;30.56;55.26
9335;BME280;4706;41.844;26.082;2023-07-13T05:23:34;100833.91;;;30.80;54.45
9335;BME280;4706;41.844;26.082;2023-07-13T05:26:01;100829.19;;;30.93;53.98
9335;BME280;4706;41.844;26.082;2023-07-13T05:28:27;100831.53;;;30.99;53.94
9335;BME280;4706;41.844;26.082;2023-07-13T05:30:53;100831.97;;;30.97;53.41
9335;BME280;4706;41.844;26.082;2023-07-13T05:33:19;100841.78;;;30.69;54.83
9335;BME280;4706;41.844;26.082;2023-07-13T05:35:45;100835.75;;;30.90;54.06
9335;BME280;4706;41.844;26.082;2023-07-13T05:38:10;100835.19;;;31.19;53.76
9335;BME280;4706;41.844;26.082;2023-07-13T05:40:37;100828.13;;;31.27;53.75
9335;BME280;4706;41.844;26.082;2023-07-13T05:43:03;100822.22;;;31.18;52.56
9335;BME280;4706;41.844;26.082;2023-07-13T05:45:29;100836.19;;;31.29;53.00
9335;BME280;4706;41.844;26.082;2023-07-13T05:47:54;100832.75;;;31.41;52.38
9335;BME280;4706;41.844;26.082;2023-07-13T05:50:20;100841.44;;;31.70;51.94
9335;BME280;4706;41.844;26.082;2023-07-13T05:52:46;100836.97;;;31.89;51.50
9335;BME280;4706;41.844;26.082;2023-07-13T05:55:12;100839.16;;;32.01;50.82
9335;BME280;4706;41.844;26.082;2023-07-13T05:57:37;100824.75;;;32.08;50.69
9335;BME280;4706;41.844;26.082;2023-07-13T06:00:03;100827.69;;;32.37;49.36
9335;BME280;4706;41.844;26.082;2023-07-13T06:02:28;100835.53;;;32.50;48.60
9335;BME280;4706;41.844;26.082;2023-07-13T06:04:54;100835.88;;;32.52;48.67
9335;BME280;4706;41.844;26.082;2023-07-13T06:07:19;100826.56;;;32.51;48.70
9335;BME280;4706;41.844;26.082;2023-07-13T06:09:45;100829.47;;;32.64;49.21
9335;BME280;4706;41.844;26.082;2023-07-13T06:12:10;100830.53;;;32.70;48.40
9335;BME280;4706;41.844;26.082;2023-07-13T06:14:36;100833.88;;;32.81;48.32
9335;BME280;4706;41.844;26.082;2023-07-13T06:17:01;100829.66;;;33.02;47.29
9335;BME280;4706;41.844;26.082;2023-07-13T06:19:28;100828.09;;;32.85;47.29
9335;BME280;4706;41.844;26.082;2023-07-13T06:21:53;100829.88;;;32.79;47.72
9335;BME280;4706;41.844;26.082;2023-07-13T06:24:18;100821.69;;;32.81;47.64
9335;BME280;4706;41.844;26.082;2023-07-13T06:26:44;100819.66;;;32.81;47.52
9335;BME280;4706;41.844;26.082;2023-07-13T06:29:09;100819.09;;;32.86;48.03
9335;BME280;4706;41.844;26.082;2023-07-13T06:31:35;100812.13;;;32.42;48.81
9335;BME280;4706;41.844;26.082;2023-07-13T06:34:00;100812.94;;;32.59;48.94
9335;BME280;4706;41.844;26.082;2023-07-13T06:36:26;100811.59;;;32.93;48.19
9335;BME280;4706;41.844;26.082;2023-07-13T06:38:52;100814.81;;;32.95;47.75
9335;BME280;4706;41.844;26.082;2023-07-13T06:41:17;100813.66;;;32.92;47.79
9335;BME280;4706;41.844;26.082;2023-07-13T06:43:43;100807.13;;;33.08;47.21
9335;BME280;4706;41.844;26.082;2023-07-13T06:46:09;100803.28;;;33.15;47.09
9335;BME280;4706;41.844;26.082;2023-07-13T06:48:35;100789.75;;;33.02;47.80
9335;BME280;4706;41.844;26.082;2023-07-13T06:51:01;100783.66;;;32.87;47.98
9335;BME280;4706;41.844;26.082;2023-07-13T06:53:27;100797.34;;;32.93;48.23
9335;BME280;4706;41.844;26.082;2023-07-13T06:55:53;100788.91;;;32.89;48.28
9335;BME280;4706;41.844;26.082;2023-07-13T06:58:19;100801.63;;;33.01;48.11
9335;BME280;4706;41.844;26.082;2023-07-13T07:00:45;100796.09;;;33.10;47.86
9335;BME280;4706;41.844;26.082;2023-07-13T07:03:11;100781.72;;;33.13;47.78
9335;BME280;4706;41.844;26.082;2023-07-13T07:05:36;100797.97;;;33.29;47.73
9335;BME280;4706;41.844;26.082;2023-07-13T07:08:02;100799.66;;;33.40;47.75
9335;BME280;4706;41.844;26.082;2023-07-13T07:10:30;100796.53;;;33.50;47.59
9335;BME280;4706;41.844;26.082;2023-07-13T07:12:55;100796.44;;;33.79;47.11
9335;BME280;4706;41.844;26.082;2023-07-13T07:15:21;100796.44;;;34.18;46.31
9335;BME280;4706;41.844;26.082;2023-07-13T07:17:46;100790.84;;;34.27;45.95
9335;BME280;4706;41.844;26.082;2023-07-13T07:20:12;100790.16;;;34.10;46.11
9335;BME280;4706;41.844;26.082;2023-07-13T07:22:38;100795.09;;;34.10;45.95
9335;BME280;4706;41.844;26.082;2023-07-13T07:25:04;100787.47;;;34.41;46.05
9335;BME280;4706;41.844;26.082;2023-07-13T07:27:29;100787.94;;;34.87;45.37
9335;BME280;4706;41.844;26.082;2023-07-13T07:29:55;100785.53;;;35.30;43.58
9335;BME280;4706;41.844;26.082;2023-07-13T07:32:23;100777.63;;;35.56;43.54
9335;BME280;4706;41.844;26.082;2023-07-13T07:34:48;100783.44;;;35.83;42.83
9335;BME280;4706;41.844;26.082;2023-07-13T07:37:14;100776.13;;;35.82;42.15
9335;BME280;4706;41.844;26.082;2023-07-13T07:39:40;100777.63;;;35.96;42.19
9335;BME280;4706;41.844;26.082;2023-07-13T07:42:05;100771.75;;;35.99;42.69
9335;BME280;4706;41.844;26.082;2023-07-13T07:44:32;100770.22;;;36.08;41.77
9335;BME280;4706;41.844;26.082;2023-07-13T07:46:58;100768.00;;;36.21;41.94
9335;BME280;4706;41.844;26.082;2023-07-13T07:49:23;100762.84;;;36.56;41.08
9335;BME280;4706;41.844;26.082;2023-07-13T07:51:49;100762.03;;;36.65;41.17
9335;BME280;4706;41.844;26.082;2023-07-13T07:54:15;100767.28;;;36.94;40.50
9335;BME280;4706;41.844;26.082;2023-07-13T07:56:40;100772.94;;;37.31;40.22
9335;BME280;4706;41.844;26.082;2023-07-13T07:59:06;100770.31;;;37.60;38.23
9335;BME280;4706;41.844;26.082;2023-07-13T08:01:31;100774.69;;;37.80;37.98
9335;BME280;4706;41.844;26.082;2023-07-13T08:03:58;100774.47;;;38.02;37.92
9335;BME280;4706;41.844;26.082;2023-07-13T08:06:24;100773.72;;;37.92;38.12
9335;BME280;4706;41.844;26.082;2023-07-13T08:08:49;100776.50;;;38.10;37.83
9335;BME280;4706;41.844;26.082;2023-07-13T08:11:16;100770.19;;;38.21;37.15
9335;BME280;4706;41.844;26.082;2023-07-13T08:13:42;100769.09;;;38.19;37.79
9335;BME280;4706;41.844;26.082;2023-07-13T08:16:07;100766.75;;;38.41;37.73
9335;BME280;4706;41.844;26.082;2023-07-13T08:18:33;100772.56;;;38.71;37.55
9335;BME280;4706;41.844;26.082;2023-07-13T08:21:03;100762.34;;;38.94;36.46
9335;BME280;4706;41.844;26.082;2023-07-13T08:23:29;100768.00;;;39.18;34.99
9335;BME280;4706;41.844;26.082;2023-07-13T08:25:55;100762.75;;;39.46;34.98
9335;BME280;4706;41.844;26.082;2023-07-13T08:28:21;100767.97;;;39.77;34.19
9335;BME280;4706;41.844;26.082;2023-07-13T08:30:47;100766.59;;;40.08;33.85
9335;BME280;4706;41.844;26.082;2023-07-13T08:33:20;100765.78;;;40.22;33.34
9335;BME280;4706;41.844;26.082;2023-07-13T08:35:47;100762.25;;;40.33;33.20
9335;BME280;4706;41.844;26.082;2023-07-13T08:38:12;100757.63;;;40.05;32.61
9335;BME280;4706;41.844;26.082;2023-07-13T08:40:39;100758.00;;;39.93;33.77
9335;BME280;4706;41.844;26.082;2023-07-13T08:43:09;100761.41;;;40.12;34.24
9335;BME280;4706;41.844;26.082;2023-07-13T08:45:56;100762.31;;;40.38;32.70
9335;BME280;4706;41.844;26.082;2023-07-13T08:48:38;100753.59;;;40.33;33.14
9335;BME280;4706;41.844;26.082;2023-07-13T08:53:55;100751.28;;;40.37;32.21
9335;BME280;4706;41.844;26.082;2023-07-13T08:56:25;100755.19;;;40.34;32.60
9335;BME280;4706;41.844;26.082;2023-07-13T08:59:00;100760.28;;;40.65;32.32
9335;BME280;4706;41.844;26.082;2023-07-13T09:06:58;100753.19;;;40.86;31.68
9335;BME280;4706;41.844;26.082;2023-07-13T09:09:47;100750.88;;;41.16;31.02
9335;BME280;4706;41.844;26.082;2023-07-13T09:12:30;100754.25;;;41.41;30.77
9335;BME280;4706;41.844;26.082;2023-07-13T09:15:01;100746.47;;;41.53;30.70
9335;BME280;4706;41.844;26.082;2023-07-13T09:17:36;100748.97;;;41.71;30.36
9335;BME280;4706;41.844;26.082;2023-07-13T09:20:22;100742.47;;;41.82;30.29
9335;BME280;4706;41.844;26.082;2023-07-13T09:22:49;100736.50;;;41.85;29.62
9335;BME280;4706;41.844;26.082;2023-07-13T09:27:43;100734.19;;;41.58;29.64
9335;BME280;4706;41.844;26.082;2023-07-13T09:30:23;100729.50;;;41.60;30.15
9335;BME280;4706;41.844;26.082;2023-07-13T09:32:52;100730.81;;;41.65;29.99
9335;BME280;4706;41.844;26.082;2023-07-13T09:35:25;100724.44;;;41.87;30.37
9335;BME280;4706;41.844;26.082;2023-07-13T09:38:19;100721.09;;;42.05;29.59
9335;BME280;4706;41.844;26.082;2023-07-13T09:43:20;100713.13;;;41.83;29.46
9335;BME280;4706;41.844;26.082;2023-07-13T09:45:46;100705.56;;;41.97;30.02
9335;BME280;4706;41.844;26.082;2023-07-13T09:48:16;100714.22;;;41.60;30.68
9335;BME280;4706;41.844;26.082;2023-07-13T09:50:43;100701.66;;;41.63;29.73
9335;BME280;4706;41.844;26.082;2023-07-13T09:53:14;100706.13;;;41.64;29.38
9335;BME280;4706;41.844;26.082;2023-07-13T09:55:42;100699.84;;;41.65;29.26
9335;BME280;4706;41.844;26.082;2023-07-13T09:58:21;100701.66;;;41.63;28.76
9335;BME280;4706;41.844;26.082;2023-07-13T10:01:14;100693.03;;;41.68;28.92
9335;BME280;4706;41.844;26.082;2023-07-13T10:03:54;100685.66;;;41.62;29.02
9335;BME280;4706;41.844;26.082;2023-07-13T10:06:21;100680.84;;;41.90;28.50
9335;BME280;4706;41.844;26.082;2023-07-13T10:08:49;100682.13;;;41.89;28.14
9335;BME280;4706;41.844;26.082;2023-07-13T10:11:23;100676.13;;;41.93;28.84
9335;BME280;4706;41.844;26.082;2023-07-13T10:13:59;100678.06;;;42.24;28.11
9335;BME280;4706;41.844;26.082;2023-07-13T10:16:31;100673.72;;;42.51;27.26
9335;BME280;4706;41.844;26.082;2023-07-13T10:19:08;100660.34;;;42.59;26.86
9335;BME280;4706;41.844;26.082;2023-07-13T10:21:55;100666.66;;;42.63;26.96
9335;BME280;4706;41.844;26.082;2023-07-13T10:24:22;100661.88;;;42.43;27.14
9335;BME280;4706;41.844;26.082;2023-07-13T10:26:55;100654.81;;;42.56;27.20
9335;BME280;4706;41.844;26.082;2023-07-13T10:29:24;100659.50;;;42.42;26.62
9335;BME280;4706;41.844;26.082;2023-07-13T10:31:51;100660.31;;;42.65;26.69
9335;BME280;4706;41.844;26.082;2023-07-13T10:34:17;100651.88;;;42.39;26.24
9335;BME280;4706;41.844;26.082;2023-07-13T10:36:47;100639.50;;;42.38;26.74
9335;BME280;4706;41.844;26.082;2023-07-13T10:39:19;100642.69;;;42.40;26.42
9335;BME280;4706;41.844;26.082;2023-07-13T10:41:48;100629.81;;;42.53;25.88
9335;BME280;4706;41.844;26.082;2023-07-13T10:44:25;100629.31;;;42.60;24.34
9335;BME280;4706;41.844;26.082;2023-07-13T10:47:03;100627.75;;;42.87;24.29
9335;BME280;4706;41.844;26.082;2023-07-13T10:49:32;100612.22;;;42.96;24.41
9335;BME280;4706;41.844;26.082;2023-07-13T10:51:59;100618.56;;;42.94;23.98
9335;BME280;4706;41.844;26.082;2023-07-13T10:54:33;100612.50;;;43.03;23.72
9335;BME280;4706;41.844;26.082;2023-07-13T10:57:16;100606.19;;;42.99;23.04
9335;BME280;4706;41.844;26.082;2023-07-13T10:59:46;100607.00;;;43.11;23.25
9335;BME280;4706;41.844;26.082;2023-07-13T11:02:22;100605.38;;;43.21;22.57
9335;BME280;4706;41.844;26.082;2023-07-13T11:04:53;100599.88;;;43.23;22.55
9335;BME280;4706;41.844;26.082;2023-07-13T11:07:20;100601.97;;;43.28;22.84
9335;BME280;4706;41.844;26.082;2023-07-13T11:09:50;100605.34;;;43.44;22.58
9335;BME280;4706;41.844;26.082;2023-07-13T11:22:51;100593.34;;;43.98;19.38
9335;BME280;4706;41.844;26.082;2023-07-13T11:25:21;100588.84;;;43.97;20.02
9335;BME280;4706;41.844;26.082;2023-07-13T11:38:35;100575.38;;;44.05;19.26
9335;BME280;4706;41.844;26.082;2023-07-13T11:41:05;100576.19;;;44.00;19.84
9335;BME280;4706;41.844;26.082;2023-07-13T11:43:30;100581.19;;;43.99;19.72
9335;BME280;4706;41.844;26.082;2023-07-13T11:45:58;100574.91;;;43.95;20.33
9335;BME280;4706;41.844;26.082;2023-07-13T11:48:28;100569.38;;;43.97;20.47
9335;BME280;4706;41.844;26.082;2023-07-13T11:51:00;100567.25;;;43.98;19.92
9335;BME280;4706;41.844;26.082;2023-07-13T11:53:34;100565.41;;;43.95;19.56
9335;BME280;4706;41.844;26.082;2023-07-13T11:56:01;100567.91;;;43.68;19.53
9335;BME280;4706;41.844;26.082;2023-07-13T11:58:27;100574.09;;;42.91;21.11
9335;BME280;4706;41.844;26.082;2023-07-13T12:00:55;100573.03;;;43.06;21.25
9335;BME280;4706;41.844;26.082;2023-07-13T12:03:24;100573.28;;;43.25;19.98
9335;BME280;4706;41.844;26.082;2023-07-13T12:06:05;100567.22;;;43.28;19.53
9335;BME280;4706;41.844;26.082;2023-07-13T12:08:31;100558.25;;;43.32;19.02
9335;BME280;4706;41.844;26.082;2023-07-13T12:11:06;100555.34;;;43.32;19.26
9335;BME280;4706;41.844;26.082;2023-07-13T12:13:37;100542.75;;;43.18;18.88
9335;BME280;4706;41.844;26.082;2023-07-13T12:16:31;100550.16;;;43.13;18.75
9335;BME280;4706;41.844;26.082;2023-07-13T12:18:59;100547.75;;;43.17;18.68
9335;BME280;4706;41.844;26.082;2023-07-13T12:21:38;100550.91;;;43.03;18.36
9335;BME280;4706;41.844;26.082;2023-07-13T12:24:04;100548.56;;;42.96;19.10
9335;BME280;4706;41.844;26.082;2023-07-13T12:26:31;100543.59;;;42.79;19.05
9335;BME280;4706;41.844;26.082;2023-07-13T12:29:00;100543.31;;;42.60;19.41
9335;BME280;4706;41.844;26.082;2023-07-13T12:31:56;100543.06;;;42.58;18.57
9335;BME280;4706;41.844;26.082;2023-07-13T12:34:24;100534.91;;;42.57;18.88
9335;BME280;4706;41.844;26.082;2023-07-13T12:36:52;100542.28;;;42.69;17.77
9335;BME280;4706;41.844;26.082;2023-07-13T12:39:28;100537.81;;;42.62;18.44
9335;BME280;4706;41.844;26.082;2023-07-13T12:42:31;100529.91;;;42.63;17.57
9335;BME280;4706;41.844;26.082;2023-07-13T12:45:17;100537.53;;;42.60;17.29
9335;BME280;4706;41.844;26.082;2023-07-13T12:47:46;100530.72;;;42.69;17.97
9335;BME280;4706;41.844;26.082;2023-07-13T12:50:21;100524.91;;;42.63;18.32
9335;BME280;4706;41.844;26.082;2023-07-13T12:52:52;100512.31;;;42.50;19.33
9335;BME280;4706;41.844;26.082;2023-07-13T12:55:20;100521.75;;;42.50;18.90
9335;BME280;4706;41.844;26.082;2023-07-13T12:57:51;100514.94;;;42.53;19.22
9335;BME280;4706;41.844;26.082;2023-07-13T13:00:40;100510.75;;;42.43;18.88
9335;BME280;4706;41.844;26.082;2023-07-13T13:03:17;100517.03;;;42.25;19.75
9335;BME280;4706;41.844;26.082;2023-07-13T13:05:46;100507.28;;;42.22;20.11
9335;BME280;4706;41.844;26.082;2023-07-13T13:08:13;100512.78;;;42.03;20.14
9335;BME280;4706;41.844;26.082;2023-07-13T13:10:39;100516.19;;;41.96;20.88
9335;BME280;4706;41.844;26.082;2023-07-13T13:13:04;100514.59;;;41.95;20.66
9335;BME280;4706;41.844;26.082;2023-07-13T13:15:30;100502.50;;;41.96;20.53
9335;BME280;4706;41.844;26.082;2023-07-13T13:17:56;100496.72;;;41.96;20.21
9335;BME280;4706;41.844;26.082;2023-07-13T13:20:23;100490.69;;;41.83;20.16
9335;BME280;4706;41.844;26.082;2023-07-13T13:22:51;100500.56;;;41.71;20.53
9335;BME280;4706;41.844;26.082;2023-07-13T13:25:16;100495.63;;;41.71;19.95
9335;BME280;4706;41.844;26.082;2023-07-13T13:27:44;100491.91;;;41.71;19.99
9335;BME280;4706;41.844;26.082;2023-07-13T13:30:15;100487.13;;;41.45;20.16
9335;BME280;4706;41.844;26.082;2023-07-13T13:32:44;100486.50;;;41.30;20.17
9335;BME280;4706;41.844;26.082;2023-07-13T13:35:14;100475.72;;;41.25;20.83
9335;BME280;4706;41.844;26.082;2023-07-13T13:37:40;100477.81;;;41.24;20.57
9335;BME280;4706;41.844;26.082;2023-07-13T13:40:19;100475.75;;;41.31;21.01
9335;BME280;4706;41.844;26.082;2023-07-13T13:42:46;100479.44;;;41.31;20.72
9335;BME280;4706;41.844;26.082;2023-07-13T13:45:13;100471.03;;;41.33;20.85